EFW26BF EGKK-GCTS
Flight info
| Callsign | EFW26BF |
|---|---|
| Flight time | N/A |
| Altitude | 35000 |
| Route | IMVUR1Z IMVUR N63 SAM M195 LORKU DCT EBOMO DCT KORUL DCT AGADO DCT DIRMA DCT BEXAL UN866 OSDIV/N0460F370 UN866 KONBA KONBA2Z |
| Aircraft | A320/M-SDE3FGIJ1KRWXY/S |
Departure
| Time | 2026-05-08 08:39 |
|---|---|
| Airport | London Gatwick Airport (EGKK) |
Arrival
| Time | N/A |
|---|---|
| Airport | Tenerife Sur Airport (GCTS) |
| Time | Latitude | Longitude | Altitude | Speed | Heading |
|---|---|---|---|---|---|
| 2026-05-08 07:56 | 51.15490 | -0.16970 | 205 ft | 0 kts | 348° |
| 2026-05-08 08:28 | 51.15469 | -0.16962 | 204 ft | 4 kts | 342° |
| 2026-05-08 08:29 | 51.15445 | -0.16945 | 214 ft | 4 kts | 316° |
| 2026-05-08 08:29 | 51.15435 | -0.16917 | 215 ft | 1 kts | 258° |
| 2026-05-08 08:29 | 51.15435 | -0.16916 | 204 ft | 0 kts | 258° |
| 2026-05-08 08:32 | 51.15432 | -0.16942 | 213 ft | 12 kts | 257° |
| 2026-05-08 08:32 | 51.15405 | -0.17114 | 215 ft | 17 kts | 251° |
| 2026-05-08 08:32 | 51.15370 | -0.17280 | 210 ft | 14 kts | 251° |
| 2026-05-08 08:33 | 51.15316 | -0.17386 | 215 ft | 13 kts | 224° |
| 2026-05-08 08:33 | 51.15288 | -0.17525 | 212 ft | 14 kts | 257° |
| 2026-05-08 08:33 | 51.15266 | -0.17685 | 212 ft | 15 kts | 258° |
| 2026-05-08 08:33 | 51.15243 | -0.17860 | 214 ft | 17 kts | 257° |
| 2026-05-08 08:34 | 51.15216 | -0.18054 | 214 ft | 19 kts | 257° |
| 2026-05-08 08:34 | 51.15190 | -0.18256 | 204 ft | 18 kts | 262° |
| 2026-05-08 08:34 | 51.15167 | -0.18460 | 206 ft | 20 kts | 258° |
| 2026-05-08 08:34 | 51.15138 | -0.18676 | 207 ft | 17 kts | 257° |
| 2026-05-08 08:35 | 51.15110 | -0.18874 | 209 ft | 19 kts | 257° |
| 2026-05-08 08:35 | 51.15081 | -0.19074 | 208 ft | 19 kts | 257° |
| 2026-05-08 08:35 | 51.15052 | -0.19242 | 209 ft | 13 kts | 233° |
| 2026-05-08 08:35 | 51.14974 | -0.19280 | 217 ft | 11 kts | 214° |
| 2026-05-08 08:36 | 51.14947 | -0.19395 | 208 ft | 12 kts | 257° |
| 2026-05-08 08:36 | 51.14925 | -0.19537 | 212 ft | 14 kts | 256° |
| 2026-05-08 08:36 | 51.14903 | -0.19698 | 207 ft | 16 kts | 258° |
| 2026-05-08 08:36 | 51.14879 | -0.19881 | 208 ft | 18 kts | 257° |
| 2026-05-08 08:37 | 51.14848 | -0.20090 | 212 ft | 21 kts | 257° |
| 2026-05-08 08:37 | 51.14815 | -0.20328 | 203 ft | 23 kts | 258° |
| 2026-05-08 08:37 | 51.14781 | -0.20578 | 213 ft | 23 kts | 257° |
| 2026-05-08 08:37 | 51.14733 | -0.20714 | 214 ft | 12 kts | 193° |
| 2026-05-08 08:38 | 51.14645 | -0.20694 | 209 ft | 13 kts | 169° |
| 2026-05-08 08:38 | 51.14593 | -0.20649 | 216 ft | 7 kts | 91° |
| 2026-05-08 08:38 | 51.14603 | -0.20577 | 206 ft | 8 kts | 75° |
| 2026-05-08 08:38 | 51.14657 | -0.20161 | 212 ft | 72 kts | 77° |
| 2026-05-08 08:39 | 51.14809 | -0.19068 | 213 ft | 127 kts | 78° |
| 2026-05-08 08:39 | 51.15025 | -0.17450 | 234 ft | 168 kts | 78° |
| 2026-05-08 08:39 | 51.15248 | -0.15684 | 852 ft | 163 kts | 78° |
| 2026-05-08 08:39 | 51.15504 | -0.13807 | 1171 ft | 185 kts | 78° |
| 2026-05-08 08:40 | 51.15800 | -0.11688 | 1443 ft | 207 kts | 78° |
| 2026-05-08 08:40 | 51.16126 | -0.09365 | 1916 ft | 219 kts | 78° |
| 2026-05-08 08:40 | 51.16487 | -0.06994 | 2717 ft | 222 kts | 71° |
| 2026-05-08 08:40 | 51.17443 | -0.05060 | 3480 ft | 232 kts | 32° |
| 2026-05-08 08:41 | 51.19025 | -0.04450 | 4169 ft | 241 kts | 358° |
| 2026-05-08 08:41 | 51.20700 | -0.04868 | 4907 ft | 245 kts | 344° |
| 2026-05-08 08:41 | 51.22135 | -0.06268 | 5642 ft | 247 kts | 306° |
| 2026-05-08 08:41 | 51.22804 | -0.08773 | 6235 ft | 255 kts | 272° |
| 2026-05-08 08:42 | 51.22610 | -0.11656 | 6665 ft | 270 kts | 256° |
| 2026-05-08 08:42 | 51.22244 | -0.14641 | 7321 ft | 276 kts | 257° |
| 2026-05-08 08:42 | 51.21882 | -0.17659 | 8085 ft | 280 kts | 257° |
| 2026-05-08 08:42 | 51.21520 | -0.20735 | 8832 ft | 283 kts | 257° |
| 2026-05-08 08:43 | 51.21157 | -0.23833 | 9577 ft | 286 kts | 257° |
| 2026-05-08 08:43 | 51.20790 | -0.26960 | 10323 ft | 287 kts | 258° |
| 2026-05-08 08:43 | 51.20426 | -0.30090 | 11069 ft | 288 kts | 258° |
| 2026-05-08 08:43 | 51.20062 | -0.33232 | 11808 ft | 288 kts | 258° |
| 2026-05-08 08:44 | 51.19687 | -0.36379 | 12531 ft | 288 kts | 257° |
| 2026-05-08 08:44 | 51.19286 | -0.39520 | 13202 ft | 290 kts | 257° |
| 2026-05-08 08:44 | 51.18870 | -0.42662 | 13807 ft | 293 kts | 256° |
| 2026-05-08 08:44 | 51.18448 | -0.45820 | 14400 ft | 295 kts | 256° |
| 2026-05-08 08:45 | 51.18019 | -0.49039 | 14974 ft | 299 kts | 256° |
| 2026-05-08 08:45 | 51.17579 | -0.52332 | 15571 ft | 301 kts | 254° |
| 2026-05-08 08:45 | 51.16896 | -0.55484 | 15892 ft | 312 kts | 246° |
| 2026-05-08 08:45 | 51.16035 | -0.58753 | 16028 ft | 329 kts | 245° |
| 2026-05-08 08:46 | 51.15113 | -0.62192 | 16156 ft | 345 kts | 245° |
| 2026-05-08 08:46 | 51.14145 | -0.65778 | 16296 ft | 360 kts | 245° |
| 2026-05-08 08:46 | 51.13154 | -0.69447 | 16419 ft | 375 kts | 245° |
| 2026-05-08 08:46 | 51.12107 | -0.73343 | 16584 ft | 387 kts | 245° |
| 2026-05-08 08:47 | 51.11041 | -0.77312 | 16954 ft | 393 kts | 245° |
| 2026-05-08 08:47 | 51.09960 | -0.81342 | 17425 ft | 397 kts | 245° |
| 2026-05-08 08:47 | 51.08875 | -0.85378 | 17884 ft | 399 kts | 245° |
| 2026-05-08 08:47 | 51.07780 | -0.89444 | 18331 ft | 402 kts | 245° |
| 2026-05-08 08:48 | 51.06673 | -0.93548 | 18800 ft | 405 kts | 245° |
| 2026-05-08 08:48 | 51.05562 | -0.97669 | 19263 ft | 407 kts | 245° |
| 2026-05-08 08:48 | 51.04443 | -1.01819 | 19708 ft | 410 kts | 245° |
| 2026-05-08 08:48 | 51.03314 | -1.05990 | 20153 ft | 412 kts | 245° |
| 2026-05-08 08:49 | 51.02175 | -1.10185 | 20587 ft | 415 kts | 245° |
| 2026-05-08 08:49 | 51.01028 | -1.14402 | 20975 ft | 418 kts | 245° |
| 2026-05-08 08:49 | 50.99871 | -1.18653 | 21355 ft | 420 kts | 245° |
| 2026-05-08 08:49 | 50.98704 | -1.22924 | 21724 ft | 422 kts | 245° |
| 2026-05-08 08:50 | 50.97529 | -1.27206 | 22081 ft | 424 kts | 244° |
| 2026-05-08 08:50 | 50.96093 | -1.31300 | 22417 ft | 426 kts | 235° |
| 2026-05-08 08:50 | 50.94238 | -1.34960 | 22740 ft | 427 kts | 226° |
| 2026-05-08 08:50 | 50.92020 | -1.38093 | 23067 ft | 429 kts | 216° |
| 2026-05-08 08:51 | 50.89539 | -1.40733 | 23384 ft | 431 kts | 213° |
| 2026-05-08 08:51 | 50.87033 | -1.43329 | 23696 ft | 433 kts | 213° |
| 2026-05-08 08:51 | 50.84507 | -1.45957 | 24052 ft | 434 kts | 213° |
| 2026-05-08 08:51 | 50.81990 | -1.48579 | 24510 ft | 432 kts | 213° |
| 2026-05-08 08:52 | 50.79485 | -1.51185 | 24957 ft | 431 kts | 213° |
| 2026-05-08 08:52 | 50.76979 | -1.53784 | 25402 ft | 430 kts | 213° |
| 2026-05-08 08:52 | 50.74485 | -1.56364 | 25869 ft | 428 kts | 213° |
| 2026-05-08 08:52 | 50.71992 | -1.58940 | 26324 ft | 427 kts | 213° |
| 2026-05-08 08:53 | 50.69543 | -1.61465 | 26752 ft | 426 kts | 213° |
| 2026-05-08 08:53 | 50.67063 | -1.64017 | 27172 ft | 425 kts | 213° |
| 2026-05-08 08:53 | 50.64588 | -1.66565 | 27600 ft | 424 kts | 213° |
| 2026-05-08 08:53 | 50.62126 | -1.69095 | 28031 ft | 423 kts | 213° |
| 2026-05-08 08:54 | 50.59661 | -1.71625 | 28449 ft | 422 kts | 213° |
| 2026-05-08 08:54 | 50.57206 | -1.74138 | 28851 ft | 421 kts | 213° |
| 2026-05-08 08:54 | 50.54757 | -1.76640 | 29258 ft | 419 kts | 213° |
| 2026-05-08 08:54 | 50.52315 | -1.79133 | 29656 ft | 418 kts | 213° |
| 2026-05-08 08:55 | 50.49879 | -1.81620 | 30050 ft | 417 kts | 213° |
| 2026-05-08 08:55 | 50.47446 | -1.84105 | 30407 ft | 417 kts | 213° |
| 2026-05-08 08:55 | 50.45014 | -1.86589 | 30766 ft | 417 kts | 213° |
| 2026-05-08 08:55 | 50.42578 | -1.89068 | 31130 ft | 417 kts | 214° |
| 2026-05-08 08:56 | 50.40135 | -1.91550 | 31491 ft | 417 kts | 214° |
| 2026-05-08 08:56 | 50.37699 | -1.94022 | 31841 ft | 417 kts | 214° |
| 2026-05-08 08:56 | 50.35264 | -1.96488 | 32178 ft | 417 kts | 214° |
| 2026-05-08 08:56 | 50.32828 | -1.98951 | 32519 ft | 417 kts | 214° |
| 2026-05-08 08:57 | 50.30392 | -2.01409 | 32862 ft | 417 kts | 214° |
| 2026-05-08 08:57 | 50.27951 | -2.03868 | 33194 ft | 417 kts | 214° |
| 2026-05-08 08:57 | 50.25511 | -2.06329 | 33507 ft | 417 kts | 214° |
| 2026-05-08 08:57 | 50.23075 | -2.08778 | 33809 ft | 418 kts | 214° |
| 2026-05-08 08:58 | 50.20615 | -2.11205 | 34111 ft | 418 kts | 214° |
| 2026-05-08 08:58 | 50.18983 | -2.12796 | 34305 ft | 418 kts | 214° |
| 2026-05-08 08:58 | 50.16516 | -2.15186 | 34590 ft | 418 kts | 214° |
| 2026-05-08 08:58 | 50.14048 | -2.17571 | 34861 ft | 417 kts | 214° |
| 2026-05-08 08:59 | 50.10769 | -2.20735 | 35040 ft | 420 kts | 214° |
| 2026-05-08 08:59 | 50.09085 | -2.22361 | 35054 ft | 424 kts | 214° |
| 2026-05-08 08:59 | 50.03159 | -2.28092 | 35052 ft | 438 kts | 214° |
| 2026-05-08 09:00 | 49.98810 | -2.32307 | 35052 ft | 441 kts | 214° |
| 2026-05-08 09:00 | 49.93596 | -2.37339 | 35055 ft | 441 kts | 214° |
| 2026-05-08 09:01 | 49.88435 | -2.42307 | 35055 ft | 441 kts | 214° |
| 2026-05-08 09:01 | 49.83188 | -2.47345 | 35055 ft | 441 kts | 214° |
| 2026-05-08 09:02 | 49.77995 | -2.52320 | 35057 ft | 442 kts | 214° |
| 2026-05-08 09:02 | 49.72765 | -2.57313 | 35057 ft | 442 kts | 214° |
| 2026-05-08 09:03 | 49.67522 | -2.62306 | 35055 ft | 442 kts | 215° |
| 2026-05-08 09:03 | 49.62294 | -2.67275 | 35056 ft | 442 kts | 215° |
| 2026-05-08 09:04 | 49.57041 | -2.72267 | 35050 ft | 443 kts | 215° |
| 2026-05-08 09:04 | 49.51781 | -2.77249 | 35052 ft | 443 kts | 215° |
| 2026-05-08 09:05 | 49.46523 | -2.82205 | 35054 ft | 443 kts | 215° |
| 2026-05-08 09:05 | 49.41290 | -2.87118 | 35054 ft | 443 kts | 215° |
| 2026-05-08 09:06 | 49.36033 | -2.92051 | 35046 ft | 443 kts | 216° |
| 2026-05-08 09:06 | 49.30765 | -2.96996 | 35042 ft | 443 kts | 216° |
| 2026-05-08 09:07 | 49.25501 | -3.01918 | 35042 ft | 443 kts | 216° |
| 2026-05-08 09:07 | 49.20224 | -3.06837 | 35041 ft | 443 kts | 216° |
| 2026-05-08 09:08 | 49.14944 | -3.11733 | 35041 ft | 443 kts | 216° |
| 2026-05-08 09:08 | 49.09673 | -3.16615 | 35041 ft | 443 kts | 216° |
| 2026-05-08 09:09 | 49.04398 | -3.21490 | 35043 ft | 443 kts | 216° |
| 2026-05-08 09:09 | 48.99150 | -3.26330 | 35043 ft | 443 kts | 216° |
| 2026-05-08 09:10 | 48.93877 | -3.31179 | 35043 ft | 443 kts | 216° |
| 2026-05-08 09:10 | 48.88595 | -3.36031 | 35043 ft | 443 kts | 216° |
| 2026-05-08 09:11 | 48.83320 | -3.40857 | 35042 ft | 442 kts | 216° |
| 2026-05-08 09:11 | 48.78048 | -3.45675 | 35046 ft | 442 kts | 216° |
| 2026-05-08 09:12 | 48.72798 | -3.50469 | 35060 ft | 439 kts | 216° |
| 2026-05-08 09:12 | 48.67574 | -3.55217 | 35061 ft | 436 kts | 215° |
| 2026-05-08 09:13 | 48.62379 | -3.59912 | 35055 ft | 434 kts | 215° |
| 2026-05-08 09:13 | 48.57226 | -3.64568 | 35049 ft | 433 kts | 215° |
| 2026-05-08 09:14 | 48.52061 | -3.69232 | 35041 ft | 431 kts | 215° |
| 2026-05-08 09:14 | 48.46915 | -3.73859 | 35039 ft | 430 kts | 215° |
| 2026-05-08 09:15 | 48.41781 | -3.78471 | 35036 ft | 429 kts | 215° |
| 2026-05-08 09:15 | 48.36650 | -3.83071 | 35028 ft | 428 kts | 215° |
| 2026-05-08 09:16 | 48.31536 | -3.87642 | 35027 ft | 427 kts | 215° |
| 2026-05-08 09:16 | 48.26418 | -3.92200 | 35022 ft | 427 kts | 214° |
| 2026-05-08 09:17 | 48.21342 | -3.96718 | 35016 ft | 426 kts | 214° |
| 2026-05-08 09:17 | 48.16212 | -4.01271 | 35014 ft | 426 kts | 214° |
| 2026-05-08 09:18 | 48.11135 | -4.05760 | 35016 ft | 425 kts | 214° |
| 2026-05-08 09:18 | 48.06043 | -4.10254 | 35008 ft | 425 kts | 214° |
| 2026-05-08 09:19 | 48.00949 | -4.14732 | 35002 ft | 425 kts | 214° |
| 2026-05-08 09:19 | 47.95845 | -4.19222 | 34988 ft | 425 kts | 214° |
| 2026-05-08 09:20 | 47.90754 | -4.23686 | 34985 ft | 425 kts | 214° |
| 2026-05-08 09:20 | 47.85682 | -4.28132 | 34985 ft | 425 kts | 214° |
| 2026-05-08 09:21 | 47.80599 | -4.32584 | 34983 ft | 424 kts | 214° |
| 2026-05-08 09:23 | 47.63107 | -4.48892 | 34975 ft | 424 kts | 215° |
| 2026-05-08 09:23 | 47.58105 | -4.53498 | 34975 ft | 423 kts | 215° |
| 2026-05-08 09:24 | 47.53127 | -4.58077 | 34975 ft | 424 kts | 215° |
| 2026-05-08 09:24 | 47.48120 | -4.62680 | 34980 ft | 424 kts | 214° |
| 2026-05-08 09:25 | 47.43095 | -4.67285 | 34982 ft | 425 kts | 214° |
| 2026-05-08 09:25 | 47.38073 | -4.71878 | 34983 ft | 425 kts | 214° |
| 2026-05-08 09:26 | 47.33039 | -4.76472 | 34985 ft | 425 kts | 214° |
| 2026-05-08 09:26 | 47.28004 | -4.81062 | 34983 ft | 425 kts | 214° |
| 2026-05-08 09:27 | 47.23002 | -4.85611 | 34983 ft | 425 kts | 214° |
| 2026-05-08 09:27 | 47.17971 | -4.90176 | 34983 ft | 425 kts | 214° |
| 2026-05-08 09:28 | 47.12931 | -4.94735 | 34986 ft | 425 kts | 213° |
| 2026-05-08 09:28 | 47.07885 | -4.99273 | 34985 ft | 425 kts | 213° |
| 2026-05-08 09:29 | 47.02838 | -5.03807 | 34985 ft | 425 kts | 213° |
| 2026-05-08 09:29 | 46.97806 | -5.08341 | 34984 ft | 425 kts | 213° |
| 2026-05-08 09:30 | 46.92768 | -5.12855 | 34982 ft | 425 kts | 213° |
| 2026-05-08 09:30 | 46.87752 | -5.17338 | 34979 ft | 425 kts | 213° |
| 2026-05-08 09:31 | 46.82711 | -5.21842 | 34977 ft | 425 kts | 213° |
| 2026-05-08 09:31 | 46.77656 | -5.26341 | 34975 ft | 425 kts | 213° |
| 2026-05-08 09:32 | 46.72596 | -5.30833 | 34975 ft | 425 kts | 212° |
| 2026-05-08 09:32 | 46.67536 | -5.35322 | 34972 ft | 425 kts | 212° |
| 2026-05-08 09:33 | 46.62481 | -5.39797 | 34972 ft | 425 kts | 212° |
| 2026-05-08 09:33 | 46.57448 | -5.44227 | 34970 ft | 425 kts | 212° |
| 2026-05-08 09:34 | 46.52379 | -5.48681 | 34967 ft | 425 kts | 212° |
| 2026-05-08 09:34 | 46.47319 | -5.53121 | 34967 ft | 425 kts | 212° |
| 2026-05-08 09:35 | 46.42254 | -5.57573 | 34968 ft | 425 kts | 212° |
| 2026-05-08 09:35 | 46.37221 | -5.61983 | 34966 ft | 425 kts | 211° |
| 2026-05-08 09:36 | 46.32153 | -5.66403 | 34962 ft | 425 kts | 211° |
| 2026-05-08 09:36 | 46.27094 | -5.70809 | 34958 ft | 425 kts | 211° |
| 2026-05-08 09:37 | 46.22022 | -5.75207 | 34955 ft | 425 kts | 211° |
| 2026-05-08 09:37 | 46.16960 | -5.79598 | 34958 ft | 425 kts | 211° |
| 2026-05-08 09:38 | 46.11887 | -5.83988 | 34953 ft | 425 kts | 211° |
| 2026-05-08 09:38 | 46.06810 | -5.88369 | 34953 ft | 425 kts | 211° |
| 2026-05-08 09:39 | 46.01773 | -5.92699 | 34946 ft | 425 kts | 211° |
| 2026-05-08 09:39 | 45.96688 | -5.97071 | 34948 ft | 424 kts | 211° |
| 2026-05-08 09:40 | 45.91619 | -6.01424 | 34948 ft | 425 kts | 211° |
| 2026-05-08 09:40 | 45.86540 | -6.05778 | 34941 ft | 425 kts | 211° |
| 2026-05-08 09:41 | 45.81455 | -6.10121 | 34940 ft | 425 kts | 210° |
| 2026-05-08 09:41 | 45.76407 | -6.14424 | 34938 ft | 425 kts | 211° |
| 2026-05-08 09:42 | 45.71324 | -6.18748 | 34934 ft | 425 kts | 210° |
| 2026-05-08 09:42 | 45.66239 | -6.23054 | 34938 ft | 425 kts | 210° |
| 2026-05-08 09:43 | 45.61153 | -6.27358 | 34938 ft | 425 kts | 210° |
| 2026-05-08 09:43 | 45.56054 | -6.31668 | 34929 ft | 425 kts | 210° |
| 2026-05-08 09:44 | 45.50965 | -6.35962 | 34929 ft | 425 kts | 210° |
| 2026-05-08 09:44 | 45.45874 | -6.40247 | 34933 ft | 425 kts | 210° |
| 2026-05-08 09:45 | 45.40800 | -6.44512 | 34924 ft | 425 kts | 210° |
| 2026-05-08 09:45 | 45.35706 | -6.48777 | 34921 ft | 425 kts | 209° |
| 2026-05-08 09:46 | 45.30598 | -6.53041 | 34921 ft | 425 kts | 209° |
| 2026-05-08 09:46 | 45.25497 | -6.57288 | 34920 ft | 425 kts | 209° |
| 2026-05-08 09:47 | 45.20391 | -6.61545 | 34918 ft | 425 kts | 209° |
| 2026-05-08 09:47 | 45.15319 | -6.65766 | 34919 ft | 425 kts | 209° |
| 2026-05-08 09:48 | 45.10213 | -6.69991 | 34915 ft | 425 kts | 208° |
| 2026-05-08 09:48 | 45.05964 | -6.73504 | 34912 ft | 425 kts | 208° |
| 2026-05-08 09:49 | 45.00867 | -6.77715 | 34911 ft | 425 kts | 208° |
| 2026-05-08 09:49 | 44.95760 | -6.81938 | 34909 ft | 425 kts | 208° |
| 2026-05-08 09:50 | 44.90655 | -6.86142 | 34906 ft | 425 kts | 208° |
| 2026-05-08 09:50 | 44.85534 | -6.90335 | 34905 ft | 425 kts | 208° |
| 2026-05-08 09:51 | 44.80374 | -6.94393 | 34904 ft | 425 kts | 206° |
| 2026-05-08 09:51 | 44.75095 | -6.98127 | 34904 ft | 425 kts | 204° |
| 2026-05-08 09:52 | 44.69782 | -7.01804 | 34909 ft | 425 kts | 204° |
| 2026-05-08 09:52 | 44.64495 | -7.05525 | 34908 ft | 425 kts | 205° |
| 2026-05-08 09:53 | 44.59208 | -7.09287 | 34904 ft | 425 kts | 205° |
| 2026-05-08 09:53 | 44.53926 | -7.13043 | 34902 ft | 425 kts | 205° |
| 2026-05-08 09:54 | 44.48647 | -7.16779 | 34901 ft | 425 kts | 204° |
| 2026-05-08 09:54 | 44.43366 | -7.20510 | 34900 ft | 425 kts | 204° |
| 2026-05-08 09:55 | 44.38087 | -7.24225 | 34900 ft | 425 kts | 204° |
| 2026-05-08 09:55 | 44.32832 | -7.27905 | 34900 ft | 425 kts | 204° |
| 2026-05-08 09:56 | 44.27548 | -7.31615 | 34903 ft | 425 kts | 204° |
| 2026-05-08 09:56 | 44.22273 | -7.35312 | 34900 ft | 425 kts | 204° |
| 2026-05-08 09:57 | 44.14339 | -7.40853 | 34897 ft | 425 kts | 204° |
| 2026-05-08 09:57 | 44.09045 | -7.44533 | 34896 ft | 425 kts | 204° |
| 2026-05-08 09:58 | 44.03754 | -7.48210 | 34895 ft | 425 kts | 204° |
| 2026-05-08 09:58 | 43.98494 | -7.51865 | 34893 ft | 425 kts | 204° |
| 2026-05-08 09:59 | 43.93198 | -7.55534 | 34891 ft | 425 kts | 203° |
| 2026-05-08 09:59 | 43.87886 | -7.59203 | 34891 ft | 425 kts | 203° |
| 2026-05-08 10:00 | 43.82585 | -7.62850 | 34893 ft | 425 kts | 203° |
| 2026-05-08 10:00 | 43.77282 | -7.66496 | 34894 ft | 425 kts | 203° |
| 2026-05-08 10:01 | 43.71987 | -7.70134 | 34893 ft | 425 kts | 203° |
| 2026-05-08 10:01 | 43.66681 | -7.73771 | 34891 ft | 425 kts | 203° |
| 2026-05-08 10:02 | 43.61419 | -7.77377 | 34887 ft | 425 kts | 203° |
| 2026-05-08 10:02 | 43.56125 | -7.80991 | 34885 ft | 425 kts | 203° |
| 2026-05-08 10:03 | 43.50819 | -7.84604 | 34885 ft | 425 kts | 202° |
| 2026-05-08 10:03 | 43.45507 | -7.88215 | 34884 ft | 425 kts | 202° |
| 2026-05-08 10:04 | 43.40207 | -7.91814 | 34884 ft | 425 kts | 202° |
| 2026-05-08 10:04 | 43.34897 | -7.95414 | 34889 ft | 425 kts | 202° |
| 2026-05-08 10:05 | 43.29626 | -7.98979 | 34879 ft | 425 kts | 202° |
| 2026-05-08 10:05 | 43.24320 | -8.02558 | 34879 ft | 425 kts | 202° |
| 2026-05-08 10:06 | 43.19007 | -8.06134 | 34878 ft | 426 kts | 202° |
| 2026-05-08 10:06 | 43.13683 | -8.09701 | 34884 ft | 426 kts | 201° |
| 2026-05-08 10:07 | 43.08354 | -8.13263 | 34887 ft | 426 kts | 202° |
| 2026-05-08 10:07 | 43.03025 | -8.16831 | 34888 ft | 426 kts | 201° |
| 2026-05-08 10:08 | 42.97732 | -8.20372 | 34891 ft | 426 kts | 201° |
| 2026-05-08 10:08 | 42.92412 | -8.23938 | 34894 ft | 426 kts | 201° |
| 2026-05-08 10:09 | 42.87079 | -8.27494 | 34898 ft | 426 kts | 201° |
| 2026-05-08 10:09 | 42.81753 | -8.31032 | 34903 ft | 426 kts | 201° |
| 2026-05-08 10:10 | 42.76424 | -8.34561 | 34904 ft | 426 kts | 201° |
| 2026-05-08 10:10 | 42.71085 | -8.38083 | 34906 ft | 426 kts | 201° |
| 2026-05-08 10:11 | 42.65746 | -8.41606 | 34906 ft | 426 kts | 201° |
| 2026-05-08 10:11 | 42.60415 | -8.45119 | 34907 ft | 426 kts | 200° |
| 2026-05-08 10:12 | 42.55080 | -8.48638 | 34911 ft | 426 kts | 200° |
| 2026-05-08 10:12 | 42.49734 | -8.52155 | 34911 ft | 426 kts | 200° |
| 2026-05-08 10:13 | 42.44390 | -8.55659 | 34911 ft | 426 kts | 200° |
| 2026-05-08 10:13 | 42.39055 | -8.59141 | 34909 ft | 426 kts | 200° |
| 2026-05-08 10:14 | 42.33716 | -8.62618 | 34908 ft | 426 kts | 200° |
| 2026-05-08 10:14 | 42.28415 | -8.66080 | 34908 ft | 426 kts | 200° |
| 2026-05-08 10:15 | 42.23074 | -8.69555 | 34906 ft | 426 kts | 200° |
| 2026-05-08 10:15 | 42.17731 | -8.73019 | 34911 ft | 426 kts | 200° |
| 2026-05-08 10:16 | 42.12377 | -8.76490 | 34910 ft | 426 kts | 200° |
| 2026-05-08 10:16 | 42.07023 | -8.79955 | 34909 ft | 426 kts | 200° |
| 2026-05-08 10:17 | 42.01677 | -8.83399 | 34910 ft | 426 kts | 200° |
| 2026-05-08 10:17 | 41.96337 | -8.86841 | 34907 ft | 427 kts | 201° |
| 2026-05-08 10:18 | 41.90982 | -8.90290 | 34905 ft | 426 kts | 201° |
| 2026-05-08 10:18 | 41.85618 | -8.93699 | 34906 ft | 426 kts | 200° |
| 2026-05-08 10:19 | 41.80184 | -8.96841 | 34907 ft | 425 kts | 199° |
| 2026-05-08 10:20 | 41.71980 | -9.01396 | 34908 ft | 425 kts | 199° |
| 2026-05-08 10:20 | 41.66528 | -9.04483 | 34907 ft | 425 kts | 199° |
| 2026-05-08 10:21 | 41.61078 | -9.07589 | 34906 ft | 425 kts | 200° |
| 2026-05-08 10:21 | 41.55626 | -9.10677 | 34905 ft | 425 kts | 200° |
| 2026-05-08 10:22 | 41.50177 | -9.13756 | 34908 ft | 426 kts | 200° |
| 2026-05-08 10:22 | 41.45218 | -9.16551 | 34909 ft | 426 kts | 200° |
| 2026-05-08 10:23 | 41.39756 | -9.19628 | 34909 ft | 426 kts | 200° |
| 2026-05-08 10:23 | 41.34337 | -9.22677 | 34909 ft | 425 kts | 200° |
| 2026-05-08 10:24 | 41.28880 | -9.25739 | 34911 ft | 425 kts | 200° |
| 2026-05-08 10:24 | 41.23418 | -9.28807 | 34909 ft | 426 kts | 200° |
| 2026-05-08 10:25 | 41.17960 | -9.31857 | 34909 ft | 425 kts | 200° |
| 2026-05-08 10:25 | 41.12505 | -9.34897 | 34909 ft | 425 kts | 201° |
| 2026-05-08 10:26 | 41.07043 | -9.37941 | 34909 ft | 425 kts | 201° |
| 2026-05-08 10:26 | 41.01579 | -9.40983 | 34904 ft | 425 kts | 201° |
| 2026-05-08 10:27 | 40.96149 | -9.43999 | 34907 ft | 425 kts | 201° |
| 2026-05-08 10:27 | 40.90696 | -9.47020 | 34909 ft | 425 kts | 202° |
| 2026-05-08 10:28 | 40.85241 | -9.50021 | 34908 ft | 425 kts | 201° |
| 2026-05-08 10:28 | 40.79667 | -9.52649 | 34909 ft | 425 kts | 198° |
| 2026-05-08 10:29 | 40.74015 | -9.54954 | 34909 ft | 425 kts | 197° |
| 2026-05-08 10:29 | 40.68405 | -9.57243 | 34910 ft | 424 kts | 198° |
| 2026-05-08 10:30 | 40.62785 | -9.59616 | 34909 ft | 425 kts | 199° |
| 2026-05-08 10:30 | 40.57156 | -9.62023 | 34911 ft | 425 kts | 199° |
| 2026-05-08 10:31 | 40.51537 | -9.64413 | 34912 ft | 424 kts | 199° |
| 2026-05-08 10:31 | 40.45906 | -9.66797 | 34913 ft | 425 kts | 199° |
| 2026-05-08 10:32 | 40.40273 | -9.69170 | 34914 ft | 425 kts | 200° |
| 2026-05-08 10:32 | 40.34679 | -9.71533 | 34916 ft | 425 kts | 200° |
| 2026-05-08 10:33 | 40.29057 | -9.73907 | 34915 ft | 425 kts | 200° |
| 2026-05-08 10:33 | 40.23430 | -9.76276 | 34919 ft | 425 kts | 200° |
| 2026-05-08 10:34 | 40.18739 | -9.78252 | 34922 ft | 425 kts | 200° |
| 2026-05-08 10:34 | 40.13101 | -9.80614 | 34925 ft | 425 kts | 200° |
| 2026-05-08 10:35 | 40.07467 | -9.82962 | 34925 ft | 425 kts | 200° |
| 2026-05-08 10:35 | 40.01839 | -9.85320 | 34932 ft | 425 kts | 200° |
| 2026-05-08 10:36 | 39.96202 | -9.87675 | 34923 ft | 425 kts | 200° |
| 2026-05-08 10:36 | 39.90564 | -9.90026 | 34926 ft | 425 kts | 200° |
| 2026-05-08 10:37 | 39.84931 | -9.92367 | 34927 ft | 425 kts | 200° |
| 2026-05-08 10:37 | 39.79300 | -9.94695 | 34929 ft | 425 kts | 200° |
| 2026-05-08 10:38 | 39.73695 | -9.97020 | 34941 ft | 424 kts | 200° |
| 2026-05-08 10:38 | 39.68064 | -9.99355 | 34941 ft | 424 kts | 200° |
| 2026-05-08 10:39 | 39.62430 | -10.01672 | 34944 ft | 424 kts | 200° |
| 2026-05-08 10:39 | 39.56819 | -10.03986 | 34940 ft | 423 kts | 200° |
| 2026-05-08 10:40 | 39.51244 | -10.06284 | 34940 ft | 422 kts | 200° |
| 2026-05-08 10:40 | 39.45644 | -10.08581 | 34942 ft | 422 kts | 200° |
| 2026-05-08 10:41 | 39.40044 | -10.10885 | 34942 ft | 422 kts | 201° |
| 2026-05-08 10:41 | 39.34450 | -10.13177 | 34944 ft | 421 kts | 201° |
| 2026-05-08 10:42 | 39.28866 | -10.15456 | 34944 ft | 420 kts | 201° |
| 2026-05-08 10:42 | 39.23300 | -10.17721 | 34945 ft | 419 kts | 201° |
| 2026-05-08 10:43 | 39.17779 | -10.19981 | 34951 ft | 418 kts | 201° |
| 2026-05-08 10:43 | 39.12227 | -10.22239 | 34949 ft | 417 kts | 201° |
| 2026-05-08 10:44 | 39.06687 | -10.24481 | 34947 ft | 416 kts | 201° |
| 2026-05-08 10:44 | 39.01162 | -10.26723 | 34948 ft | 415 kts | 201° |
| 2026-05-08 10:45 | 38.95680 | -10.28933 | 34948 ft | 415 kts | 201° |
| 2026-05-08 10:45 | 38.90180 | -10.31151 | 34948 ft | 414 kts | 201° |
| 2026-05-08 10:46 | 38.84696 | -10.33367 | 34947 ft | 413 kts | 201° |
| 2026-05-08 10:46 | 38.79188 | -10.35593 | 34945 ft | 412 kts | 201° |
| 2026-05-08 10:47 | 38.73757 | -10.37780 | 34947 ft | 411 kts | 201° |
| 2026-05-08 10:47 | 38.68306 | -10.39962 | 34944 ft | 410 kts | 201° |
| 2026-05-08 10:48 | 38.62865 | -10.42141 | 34939 ft | 410 kts | 201° |
| 2026-05-08 10:48 | 38.57421 | -10.44326 | 34941 ft | 410 kts | 201° |
| 2026-05-08 10:49 | 38.51984 | -10.46498 | 34944 ft | 409 kts | 201° |
| 2026-05-08 10:49 | 38.46574 | -10.48652 | 34943 ft | 409 kts | 201° |
| 2026-05-08 10:50 | 38.41114 | -10.50824 | 34947 ft | 408 kts | 201° |
| 2026-05-08 10:50 | 38.35694 | -10.52978 | 34951 ft | 408 kts | 201° |
| 2026-05-08 10:51 | 38.30310 | -10.55115 | 34943 ft | 407 kts | 201° |
| 2026-05-08 10:51 | 38.24903 | -10.57263 | 34946 ft | 407 kts | 201° |
| 2026-05-08 10:52 | 38.19495 | -10.59408 | 34943 ft | 407 kts | 201° |
| 2026-05-08 10:52 | 38.14091 | -10.61540 | 34941 ft | 407 kts | 201° |
| 2026-05-08 10:53 | 38.08687 | -10.63676 | 34938 ft | 407 kts | 201° |
| 2026-05-08 10:53 | 38.03276 | -10.65814 | 34947 ft | 406 kts | 201° |
| 2026-05-08 10:54 | 37.97882 | -10.67936 | 34939 ft | 406 kts | 202° |
| 2026-05-08 10:54 | 37.92497 | -10.70051 | 34950 ft | 405 kts | 202° |
| 2026-05-08 10:55 | 37.87116 | -10.72152 | 34941 ft | 404 kts | 202° |
| 2026-05-08 10:55 | 37.81761 | -10.74245 | 34940 ft | 402 kts | 202° |
| 2026-05-08 10:56 | 37.76416 | -10.76336 | 34936 ft | 402 kts | 202° |
| 2026-05-08 10:56 | 37.71112 | -10.78417 | 34935 ft | 401 kts | 202° |
| 2026-05-08 10:57 | 37.65777 | -10.80500 | 34934 ft | 401 kts | 202° |
| 2026-05-08 10:57 | 37.57760 | -10.83610 | 34933 ft | 401 kts | 202° |
| 2026-05-08 10:58 | 37.52415 | -10.85681 | 34933 ft | 401 kts | 202° |
| 2026-05-08 10:58 | 37.47088 | -10.87747 | 34932 ft | 401 kts | 202° |
| 2026-05-08 10:59 | 37.41756 | -10.89810 | 34934 ft | 400 kts | 202° |
| 2026-05-08 10:59 | 37.36437 | -10.91871 | 34937 ft | 400 kts | 202° |
| 2026-05-08 11:00 | 37.31119 | -10.93925 | 34934 ft | 400 kts | 202° |
| 2026-05-08 11:00 | 37.25828 | -10.95967 | 34935 ft | 400 kts | 202° |
| 2026-05-08 11:01 | 37.20472 | -10.98019 | 34942 ft | 400 kts | 202° |
| 2026-05-08 11:01 | 37.15187 | -11.00046 | 34945 ft | 399 kts | 202° |
| 2026-05-08 11:02 | 37.07226 | -11.03102 | 34943 ft | 399 kts | 202° |
| 2026-05-08 11:03 | 37.01922 | -11.05132 | 34946 ft | 398 kts | 202° |
| 2026-05-08 11:03 | 36.96618 | -11.07162 | 34944 ft | 398 kts | 202° |
| 2026-05-08 11:04 | 36.91325 | -11.09185 | 34950 ft | 398 kts | 202° |
| 2026-05-08 11:04 | 36.86030 | -11.11206 | 34955 ft | 397 kts | 202° |
| 2026-05-08 11:05 | 36.80738 | -11.13220 | 34947 ft | 397 kts | 202° |
| 2026-05-08 11:05 | 36.75457 | -11.15225 | 34943 ft | 397 kts | 203° |
| 2026-05-08 11:06 | 36.70173 | -11.17229 | 34937 ft | 396 kts | 203° |
| 2026-05-08 11:06 | 36.64929 | -11.19216 | 34940 ft | 396 kts | 203° |
| 2026-05-08 11:07 | 36.59654 | -11.21215 | 34943 ft | 395 kts | 203° |
| 2026-05-08 11:07 | 36.54384 | -11.23209 | 34935 ft | 395 kts | 203° |
| 2026-05-08 11:08 | 36.49127 | -11.25188 | 34940 ft | 395 kts | 203° |
| 2026-05-08 11:08 | 36.43875 | -11.27167 | 34935 ft | 394 kts | 203° |
| 2026-05-08 11:09 | 36.38616 | -11.29143 | 34934 ft | 394 kts | 203° |
| 2026-05-08 11:09 | 36.33371 | -11.31120 | 34936 ft | 394 kts | 203° |
| 2026-05-08 11:10 | 36.28130 | -11.33088 | 34937 ft | 393 kts | 203° |
| 2026-05-08 11:10 | 36.22923 | -11.35041 | 34934 ft | 393 kts | 203° |
| 2026-05-08 11:11 | 36.17689 | -11.36999 | 34932 ft | 393 kts | 203° |
| 2026-05-08 11:11 | 36.12447 | -11.38954 | 34930 ft | 393 kts | 203° |
| 2026-05-08 11:12 | 36.07210 | -11.40912 | 34929 ft | 392 kts | 203° |
| 2026-05-08 11:12 | 36.01987 | -11.42862 | 34930 ft | 392 kts | 203° |
| 2026-05-08 11:13 | 35.96846 | -11.45011 | 34927 ft | 385 kts | 212° |
| 2026-05-08 11:13 | 35.92443 | -11.48557 | 34932 ft | 379 kts | 219° |
| 2026-05-08 11:14 | 35.88153 | -11.52334 | 34934 ft | 379 kts | 219° |